sensor_id;sensor_type;location;lat;lon;timestamp;P1;durP1;ratioP1;P2;durP2;ratioP2
32824;SDS011;51060;42.640;24.356;2022-12-07T00:01:29;25.30;;;14.43;;
32824;SDS011;51060;42.640;24.356;2022-12-07T00:03:57;25.47;;;13.93;;
32824;SDS011;51060;42.640;24.356;2022-12-07T00:06:29;26.10;;;15.33;;
32824;SDS011;51060;42.640;24.356;2022-12-07T00:08:58;26.47;;;15.13;;
32824;SDS011;51060;42.640;24.356;2022-12-07T00:11:24;27.43;;;16.00;;
32824;SDS011;51060;42.640;24.356;2022-12-07T00:13:54;27.33;;;16.17;;
32824;SDS011;51060;42.640;24.356;2022-12-07T00:16:21;26.27;;;17.00;;
32824;SDS011;51060;42.640;24.356;2022-12-07T00:18:47;30.80;;;18.07;;
32824;SDS011;51060;42.640;24.356;2022-12-07T00:21:14;32.73;;;19.60;;
32824;SDS011;51060;42.640;24.356;2022-12-07T00:23:49;32.50;;;18.50;;
32824;SDS011;51060;42.640;24.356;2022-12-07T00:28:46;29.27;;;18.03;;
32824;SDS011;51060;42.640;24.356;2022-12-07T00:31:12;28.70;;;17.03;;
32824;SDS011;51060;42.640;24.356;2022-12-07T00:33:39;30.97;;;17.77;;
32824;SDS011;51060;42.640;24.356;2022-12-07T00:36:06;36.80;;;19.07;;
32824;SDS011;51060;42.640;24.356;2022-12-07T00:38:33;32.77;;;18.80;;
32824;SDS011;51060;42.640;24.356;2022-12-07T00:41:01;36.33;;;20.07;;
32824;SDS011;51060;42.640;24.356;2022-12-07T00:43:28;37.73;;;20.70;;
32824;SDS011;51060;42.640;24.356;2022-12-07T00:45:54;33.87;;;19.03;;
32824;SDS011;51060;42.640;24.356;2022-12-07T00:48:20;34.73;;;19.37;;
32824;SDS011;51060;42.640;24.356;2022-12-07T00:50:46;32.10;;;18.73;;
32824;SDS011;51060;42.640;24.356;2022-12-07T00:53:11;32.67;;;19.23;;
32824;SDS011;51060;42.640;24.356;2022-12-07T00:55:37;34.50;;;19.27;;
32824;SDS011;51060;42.640;24.356;2022-12-07T00:58:03;29.80;;;18.10;;
32824;SDS011;51060;42.640;24.356;2022-12-07T01:00:29;32.27;;;19.13;;
32824;SDS011;51060;42.640;24.356;2022-12-07T01:02:55;31.87;;;17.60;;
32824;SDS011;51060;42.640;24.356;2022-12-07T01:05:21;27.97;;;16.60;;
32824;SDS011;51060;42.640;24.356;2022-12-07T01:07:46;26.73;;;15.57;;
32824;SDS011;51060;42.640;24.356;2022-12-07T01:10:13;24.83;;;14.60;;
32824;SDS011;51060;42.640;24.356;2022-12-07T01:12:39;24.30;;;15.03;;
32824;SDS011;51060;42.640;24.356;2022-12-07T01:15:05;27.20;;;16.33;;
32824;SDS011;51060;42.640;24.356;2022-12-07T01:17:32;31.77;;;17.80;;
32824;SDS011;51060;42.640;24.356;2022-12-07T01:19:57;29.10;;;18.33;;
32824;SDS011;51060;42.640;24.356;2022-12-07T01:22:23;25.83;;;17.37;;
32824;SDS011;51060;42.640;24.356;2022-12-07T01:24:49;23.70;;;14.33;;
32824;SDS011;51060;42.640;24.356;2022-12-07T01:27:14;26.00;;;16.33;;
32824;SDS011;51060;42.640;24.356;2022-12-07T01:29:40;26.73;;;16.57;;
32824;SDS011;51060;42.640;24.356;2022-12-07T01:32:06;29.57;;;19.47;;
32824;SDS011;51060;42.640;24.356;2022-12-07T01:34:31;29.27;;;18.53;;
32824;SDS011;51060;42.640;24.356;2022-12-07T01:36:57;28.40;;;18.07;;
32824;SDS011;51060;42.640;24.356;2022-12-07T01:39:23;27.90;;;18.90;;
32824;SDS011;51060;42.640;24.356;2022-12-07T01:41:49;26.10;;;17.30;;
32824;SDS011;51060;42.640;24.356;2022-12-07T01:44:16;34.77;;;21.03;;
32824;SDS011;51060;42.640;24.356;2022-12-07T01:46:49;34.40;;;21.57;;
32824;SDS011;51060;42.640;24.356;2022-12-07T01:49:21;30.40;;;19.70;;
32824;SDS011;51060;42.640;24.356;2022-12-07T01:51:52;28.53;;;19.30;;
32824;SDS011;51060;42.640;24.356;2022-12-07T01:54:20;44.37;;;28.37;;
32824;SDS011;51060;42.640;24.356;2022-12-07T01:56:49;29.00;;;19.97;;
32824;SDS011;51060;42.640;24.356;2022-12-07T01:59:17;29.00;;;18.70;;
32824;SDS011;51060;42.640;24.356;2022-12-07T02:01:44;26.97;;;18.33;;
32824;SDS011;51060;42.640;24.356;2022-12-07T02:04:10;23.87;;;15.03;;
32824;SDS011;51060;42.640;24.356;2022-12-07T02:06:36;18.83;;;13.13;;
32824;SDS011;51060;42.640;24.356;2022-12-07T02:09:03;16.97;;;11.93;;
32824;SDS011;51060;42.640;24.356;2022-12-07T02:11:29;14.77;;;11.43;;
32824;SDS011;51060;42.640;24.356;2022-12-07T02:13:54;15.47;;;11.10;;
32824;SDS011;51060;42.640;24.356;2022-12-07T02:16:43;16.27;;;11.97;;
32824;SDS011;51060;42.640;24.356;2022-12-07T02:24:52;18.07;;;13.30;;
32824;SDS011;51060;42.640;24.356;2022-12-07T02:32:26;20.17;;;13.63;;
32824;SDS011;51060;42.640;24.356;2022-12-07T02:40:24;19.33;;;14.47;;
32824;SDS011;51060;42.640;24.356;2022-12-07T02:42:55;16.50;;;12.50;;
32824;SDS011;51060;42.640;24.356;2022-12-07T02:45:38;16.87;;;12.53;;
32824;SDS011;51060;42.640;24.356;2022-12-07T02:48:05;18.17;;;12.57;;
32824;SDS011;51060;42.640;24.356;2022-12-07T02:50:31;20.43;;;13.67;;
32824;SDS011;51060;42.640;24.356;2022-12-07T02:52:57;17.90;;;11.90;;
32824;SDS011;51060;42.640;24.356;2022-12-07T02:55:24;12.80;;;9.87;;
32824;SDS011;51060;42.640;24.356;2022-12-07T03:00:31;14.87;;;10.80;;
32824;SDS011;51060;42.640;24.356;2022-12-07T03:03:09;16.93;;;11.23;;
32824;SDS011;51060;42.640;24.356;2022-12-07T03:18:33;22.00;;;16.30;;
32824;SDS011;51060;42.640;24.356;2022-12-07T03:21:03;21.30;;;15.80;;
32824;SDS011;51060;42.640;24.356;2022-12-07T03:23:32;21.17;;;15.50;;
32824;SDS011;51060;42.640;24.356;2022-12-07T03:25:59;15.77;;;11.70;;
32824;SDS011;51060;42.640;24.356;2022-12-07T03:28:27;17.83;;;11.50;;
32824;SDS011;51060;42.640;24.356;2022-12-07T03:31:09;16.57;;;10.60;;
32824;SDS011;51060;42.640;24.356;2022-12-07T03:36:20;21.73;;;14.53;;
32824;SDS011;51060;42.640;24.356;2022-12-07T03:38:50;20.10;;;13.90;;
32824;SDS011;51060;42.640;24.356;2022-12-07T03:41:24;20.93;;;14.30;;
32824;SDS011;51060;42.640;24.356;2022-12-07T03:43:51;20.03;;;13.53;;
32824;SDS011;51060;42.640;24.356;2022-12-07T03:49:30;22.13;;;16.57;;
32824;SDS011;51060;42.640;24.356;2022-12-07T03:54:52;24.67;;;15.90;;
32824;SDS011;51060;42.640;24.356;2022-12-07T03:57:24;24.40;;;16.23;;
32824;SDS011;51060;42.640;24.356;2022-12-07T03:59:50;23.17;;;15.77;;
32824;SDS011;51060;42.640;24.356;2022-12-07T04:02:16;21.27;;;16.13;;
32824;SDS011;51060;42.640;24.356;2022-12-07T04:04:42;24.00;;;16.93;;
32824;SDS011;51060;42.640;24.356;2022-12-07T04:07:08;30.70;;;22.40;;
32824;SDS011;51060;42.640;24.356;2022-12-07T04:09:34;45.60;;;28.17;;
32824;SDS011;51060;42.640;24.356;2022-12-07T04:12:00;38.80;;;26.60;;
32824;SDS011;51060;42.640;24.356;2022-12-07T04:14:26;34.27;;;22.80;;
32824;SDS011;51060;42.640;24.356;2022-12-07T04:16:52;30.93;;;21.13;;
32824;SDS011;51060;42.640;24.356;2022-12-07T04:19:22;28.47;;;19.83;;
32824;SDS011;51060;42.640;24.356;2022-12-07T04:21:50;26.40;;;18.03;;
32824;SDS011;51060;42.640;24.356;2022-12-07T04:24:15;30.63;;;22.03;;
32824;SDS011;51060;42.640;24.356;2022-12-07T04:26:41;29.20;;;18.73;;
32824;SDS011;51060;42.640;24.356;2022-12-07T04:29:08;21.07;;;16.37;;
32824;SDS011;51060;42.640;24.356;2022-12-07T04:31:34;22.10;;;15.77;;
32824;SDS011;51060;42.640;24.356;2022-12-07T04:34:00;23.17;;;17.13;;
32824;SDS011;51060;42.640;24.356;2022-12-07T04:36:29;25.23;;;16.97;;
32824;SDS011;51060;42.640;24.356;2022-12-07T04:38:55;22.47;;;16.50;;
32824;SDS011;51060;42.640;24.356;2022-12-07T04:41:21;19.87;;;14.47;;
32824;SDS011;51060;42.640;24.356;2022-12-07T04:46:20;18.47;;;12.80;;
32824;SDS011;51060;42.640;24.356;2022-12-07T04:48:46;19.47;;;13.93;;
32824;SDS011;51060;42.640;24.356;2022-12-07T04:51:11;20.70;;;14.57;;
32824;SDS011;51060;42.640;24.356;2022-12-07T04:53:43;20.07;;;14.03;;
32824;SDS011;51060;42.640;24.356;2022-12-07T04:56:09;21.10;;;16.77;;
32824;SDS011;51060;42.640;24.356;2022-12-07T04:58:34;56.47;;;36.40;;
32824;SDS011;51060;42.640;24.356;2022-12-07T05:01:00;51.77;;;32.07;;
32824;SDS011;51060;42.640;24.356;2022-12-07T05:03:25;76.27;;;40.77;;
32824;SDS011;51060;42.640;24.356;2022-12-07T05:05:51;48.60;;;28.63;;
32824;SDS011;51060;42.640;24.356;2022-12-07T05:08:16;34.93;;;21.40;;
32824;SDS011;51060;42.640;24.356;2022-12-07T05:10:42;25.73;;;17.93;;
32824;SDS011;51060;42.640;24.356;2022-12-07T05:13:07;22.10;;;15.73;;
32824;SDS011;51060;42.640;24.356;2022-12-07T05:15:33;47.57;;;34.60;;
32824;SDS011;51060;42.640;24.356;2022-12-07T05:17:59;16.73;;;12.50;;
32824;SDS011;51060;42.640;24.356;2022-12-07T05:20:28;22.83;;;14.23;;
32824;SDS011;51060;42.640;24.356;2022-12-07T05:22:53;23.47;;;15.47;;
32824;SDS011;51060;42.640;24.356;2022-12-07T05:25:19;25.23;;;17.60;;
32824;SDS011;51060;42.640;24.356;2022-12-07T05:27:44;22.97;;;16.80;;
32824;SDS011;51060;42.640;24.356;2022-12-07T05:30:10;21.47;;;15.77;;
32824;SDS011;51060;42.640;24.356;2022-12-07T05:32:36;18.03;;;13.00;;
32824;SDS011;51060;42.640;24.356;2022-12-07T05:35:02;18.50;;;13.03;;
32824;SDS011;51060;42.640;24.356;2022-12-07T05:37:27;37.47;;;22.07;;
32824;SDS011;51060;42.640;24.356;2022-12-07T05:39:53;30.93;;;21.23;;
32824;SDS011;51060;42.640;24.356;2022-12-07T05:42:22;32.47;;;21.07;;
32824;SDS011;51060;42.640;24.356;2022-12-07T05:44:47;26.47;;;17.37;;
32824;SDS011;51060;42.640;24.356;2022-12-07T05:47:13;20.07;;;14.17;;
32824;SDS011;51060;42.640;24.356;2022-12-07T05:49:39;20.23;;;14.73;;
32824;SDS011;51060;42.640;24.356;2022-12-07T05:52:05;20.73;;;13.70;;
32824;SDS011;51060;42.640;24.356;2022-12-07T05:54:31;18.43;;;14.00;;
32824;SDS011;51060;42.640;24.356;2022-12-07T05:56:57;19.37;;;13.37;;
32824;SDS011;51060;42.640;24.356;2022-12-07T05:59:23;14.70;;;11.50;;
32824;SDS011;51060;42.640;24.356;2022-12-07T06:04:22;15.40;;;12.07;;
32824;SDS011;51060;42.640;24.356;2022-12-07T06:06:49;11.80;;;10.30;;
32824;SDS011;51060;42.640;24.356;2022-12-07T06:09:16;15.27;;;9.90;;
32824;SDS011;51060;42.640;24.356;2022-12-07T06:11:43;11.47;;;9.00;;
32824;SDS011;51060;42.640;24.356;2022-12-07T06:14:28;16.23;;;10.67;;
32824;SDS011;51060;42.640;24.356;2022-12-07T06:16:53;20.90;;;13.80;;
32824;SDS011;51060;42.640;24.356;2022-12-07T06:19:19;20.37;;;15.33;;
32824;SDS011;51060;42.640;24.356;2022-12-07T06:21:44;21.77;;;16.67;;
32824;SDS011;51060;42.640;24.356;2022-12-07T06:24:13;21.70;;;16.57;;
32824;SDS011;51060;42.640;24.356;2022-12-07T06:26:40;26.27;;;17.43;;
32824;SDS011;51060;42.640;24.356;2022-12-07T06:29:05;33.03;;;21.10;;
32824;SDS011;51060;42.640;24.356;2022-12-07T06:31:31;51.53;;;30.13;;
32824;SDS011;51060;42.640;24.356;2022-12-07T06:33:58;67.00;;;37.33;;
32824;SDS011;51060;42.640;24.356;2022-12-07T06:36:24;89.93;;;51.60;;
32824;SDS011;51060;42.640;24.356;2022-12-07T06:38:50;99.57;;;54.53;;
32824;SDS011;51060;42.640;24.356;2022-12-07T06:41:15;102.73;;;59.60;;
32824;SDS011;51060;42.640;24.356;2022-12-07T06:43:41;73.40;;;49.80;;
32824;SDS011;51060;42.640;24.356;2022-12-07T06:46:08;59.17;;;41.53;;
32824;SDS011;51060;42.640;24.356;2022-12-07T06:48:34;58.07;;;39.93;;
32824;SDS011;51060;42.640;24.356;2022-12-07T06:50:59;48.10;;;36.63;;
32824;SDS011;51060;42.640;24.356;2022-12-07T06:53:25;56.63;;;42.93;;
32824;SDS011;51060;42.640;24.356;2022-12-07T06:55:54;62.10;;;45.83;;
32824;SDS011;51060;42.640;24.356;2022-12-07T06:58:19;72.17;;;50.57;;
32824;SDS011;51060;42.640;24.356;2022-12-07T07:00:45;82.07;;;57.90;;
32824;SDS011;51060;42.640;24.356;2022-12-07T07:03:10;86.60;;;62.77;;
32824;SDS011;51060;42.640;24.356;2022-12-07T07:05:36;124.57;;;82.10;;
32824;SDS011;51060;42.640;24.356;2022-12-07T07:08:01;118.50;;;79.37;;
32824;SDS011;51060;42.640;24.356;2022-12-07T07:10:27;108.40;;;72.70;;
32824;SDS011;51060;42.640;24.356;2022-12-07T07:12:53;105.77;;;72.33;;
32824;SDS011;51060;42.640;24.356;2022-12-07T07:15:19;118.67;;;75.70;;
32824;SDS011;51060;42.640;24.356;2022-12-07T07:17:44;86.80;;;57.67;;
32824;SDS011;51060;42.640;24.356;2022-12-07T07:20:10;86.17;;;58.73;;
32824;SDS011;51060;42.640;24.356;2022-12-07T07:22:36;91.40;;;57.90;;
32824;SDS011;51060;42.640;24.356;2022-12-07T07:25:02;77.83;;;51.43;;
32824;SDS011;51060;42.640;24.356;2022-12-07T07:27:27;76.67;;;50.23;;
32824;SDS011;51060;42.640;24.356;2022-12-07T07:29:53;76.10;;;53.30;;
32824;SDS011;51060;42.640;24.356;2022-12-07T07:32:18;95.33;;;66.73;;
32824;SDS011;51060;42.640;24.356;2022-12-07T07:34:44;202.70;;;105.20;;
32824;SDS011;51060;42.640;24.356;2022-12-07T07:37:09;139.07;;;85.73;;
32824;SDS011;51060;42.640;24.356;2022-12-07T07:39:37;129.53;;;79.50;;
32824;SDS011;51060;42.640;24.356;2022-12-07T07:42:03;133.30;;;81.73;;
32824;SDS011;51060;42.640;24.356;2022-12-07T07:44:29;112.00;;;72.27;;
32824;SDS011;51060;42.640;24.356;2022-12-07T07:46:54;94.57;;;64.03;;
32824;SDS011;51060;42.640;24.356;2022-12-07T07:49:23;89.93;;;63.67;;
32824;SDS011;51060;42.640;24.356;2022-12-07T07:51:48;87.67;;;65.17;;
32824;SDS011;51060;42.640;24.356;2022-12-07T07:54:14;89.80;;;67.00;;
32824;SDS011;51060;42.640;24.356;2022-12-07T07:56:40;84.37;;;59.90;;
32824;SDS011;51060;42.640;24.356;2022-12-07T07:59:05;80.83;;;58.17;;
32824;SDS011;51060;42.640;24.356;2022-12-07T08:01:34;73.13;;;53.37;;
32824;SDS011;51060;42.640;24.356;2022-12-07T08:04:00;59.27;;;45.10;;
32824;SDS011;51060;42.640;24.356;2022-12-07T08:06:25;69.10;;;51.50;;
32824;SDS011;51060;42.640;24.356;2022-12-07T08:08:51;73.93;;;54.53;;
32824;SDS011;51060;42.640;24.356;2022-12-07T08:11:17;76.93;;;58.17;;
32824;SDS011;51060;42.640;24.356;2022-12-07T08:13:45;88.10;;;61.27;;
32824;SDS011;51060;42.640;24.356;2022-12-07T08:16:14;82.63;;;59.00;;
32824;SDS011;51060;42.640;24.356;2022-12-07T08:18:41;88.33;;;63.00;;
32824;SDS011;51060;42.640;24.356;2022-12-07T08:21:07;71.47;;;51.70;;
32824;SDS011;51060;42.640;24.356;2022-12-07T08:23:38;58.03;;;41.07;;
32824;SDS011;51060;42.640;24.356;2022-12-07T08:26:04;53.27;;;38.30;;
32824;SDS011;51060;42.640;24.356;2022-12-07T08:28:32;50.40;;;36.87;;
32824;SDS011;51060;42.640;24.356;2022-12-07T08:31:05;41.50;;;32.07;;
32824;SDS011;51060;42.640;24.356;2022-12-07T08:33:32;34.33;;;23.90;;
32824;SDS011;51060;42.640;24.356;2022-12-07T08:36:01;41.70;;;31.33;;
32824;SDS011;51060;42.640;24.356;2022-12-07T08:38:28;33.87;;;22.47;;
32824;SDS011;51060;42.640;24.356;2022-12-07T08:40:54;27.40;;;18.77;;
32824;SDS011;51060;42.640;24.356;2022-12-07T08:43:23;22.47;;;17.63;;
32824;SDS011;51060;42.640;24.356;2022-12-07T08:45:51;17.13;;;12.33;;
32824;SDS011;51060;42.640;24.356;2022-12-07T08:48:23;21.87;;;13.20;;
32824;SDS011;51060;42.640;24.356;2022-12-07T08:50:50;20.03;;;12.67;;
32824;SDS011;51060;42.640;24.356;2022-12-07T08:53:15;22.03;;;15.37;;
32824;SDS011;51060;42.640;24.356;2022-12-07T08:55:41;27.00;;;15.70;;
32824;SDS011;51060;42.640;24.356;2022-12-07T08:58:07;25.53;;;17.17;;
32824;SDS011;51060;42.640;24.356;2022-12-07T09:00:32;38.10;;;19.13;;
32824;SDS011;51060;42.640;24.356;2022-12-07T09:02:58;32.00;;;21.83;;
32824;SDS011;51060;42.640;24.356;2022-12-07T09:05:23;27.17;;;17.50;;
32824;SDS011;51060;42.640;24.356;2022-12-07T09:07:49;24.73;;;18.67;;
32824;SDS011;51060;42.640;24.356;2022-12-07T09:10:17;24.07;;;16.23;;
32824;SDS011;51060;42.640;24.356;2022-12-07T09:12:42;20.13;;;14.47;;
32824;SDS011;51060;42.640;24.356;2022-12-07T09:15:08;18.30;;;12.07;;
32824;SDS011;51060;42.640;24.356;2022-12-07T09:17:34;31.00;;;20.20;;
32824;SDS011;51060;42.640;24.356;2022-12-07T09:20:01;36.27;;;25.47;;
32824;SDS011;51060;42.640;24.356;2022-12-07T09:22:30;18.77;;;13.83;;
32824;SDS011;51060;42.640;24.356;2022-12-07T09:24:59;26.07;;;17.50;;
32824;SDS011;51060;42.640;24.356;2022-12-07T09:27:25;16.73;;;11.93;;
32824;SDS011;51060;42.640;24.356;2022-12-07T09:29:50;19.23;;;11.13;;
32824;SDS011;51060;42.640;24.356;2022-12-07T09:32:16;11.57;;;7.90;;
32824;SDS011;51060;42.640;24.356;2022-12-07T09:34:41;12.63;;;7.40;;
32824;SDS011;51060;42.640;24.356;2022-12-07T09:37:07;12.67;;;7.47;;
32824;SDS011;51060;42.640;24.356;2022-12-07T09:39:33;14.83;;;8.67;;
32824;SDS011;51060;42.640;24.356;2022-12-07T09:41:58;9.77;;;6.73;;
32824;SDS011;51060;42.640;24.356;2022-12-07T09:44:25;9.57;;;6.43;;
32824;SDS011;51060;42.640;24.356;2022-12-07T09:46:51;10.03;;;6.60;;
32824;SDS011;51060;42.640;24.356;2022-12-07T09:49:19;8.47;;;6.37;;
32824;SDS011;51060;42.640;24.356;2022-12-07T09:51:46;11.73;;;6.53;;
32824;SDS011;51060;42.640;24.356;2022-12-07T09:54:13;10.87;;;7.47;;
32824;SDS011;51060;42.640;24.356;2022-12-07T09:56:40;11.37;;;7.20;;
32824;SDS011;51060;42.640;24.356;2022-12-07T09:59:05;10.50;;;6.57;;
32824;SDS011;51060;42.640;24.356;2022-12-07T10:01:32;9.77;;;5.57;;
32824;SDS011;51060;42.640;24.356;2022-12-07T10:04:12;10.37;;;6.73;;
32824;SDS011;51060;42.640;24.356;2022-12-07T10:06:38;13.43;;;8.77;;
32824;SDS011;51060;42.640;24.356;2022-12-07T10:09:13;9.23;;;6.40;;
32824;SDS011;51060;42.640;24.356;2022-12-07T10:14:27;8.70;;;6.43;;
32824;SDS011;51060;42.640;24.356;2022-12-07T10:16:54;20.53;;;13.37;;
32824;SDS011;51060;42.640;24.356;2022-12-07T10:19:27;14.93;;;9.17;;
32824;SDS011;51060;42.640;24.356;2022-12-07T10:22:07;10.33;;;7.43;;
32824;SDS011;51060;42.640;24.356;2022-12-07T10:24:36;10.50;;;7.13;;
32824;SDS011;51060;42.640;24.356;2022-12-07T10:27:04;9.83;;;7.33;;
32824;SDS011;51060;42.640;24.356;2022-12-07T10:29:32;8.67;;;6.10;;
32824;SDS011;51060;42.640;24.356;2022-12-07T10:32:00;11.13;;;6.53;;
32824;SDS011;51060;42.640;24.356;2022-12-07T10:34:31;10.27;;;6.47;;
32824;SDS011;51060;42.640;24.356;2022-12-07T10:39:51;9.30;;;6.67;;
32824;SDS011;51060;42.640;24.356;2022-12-07T10:42:25;10.07;;;6.43;;
32824;SDS011;51060;42.640;24.356;2022-12-07T10:48:02;9.13;;;5.83;;
32824;SDS011;51060;42.640;24.356;2022-12-07T10:59:03;13.80;;;9.87;;
32824;SDS011;51060;42.640;24.356;2022-12-07T11:04:39;15.90;;;11.00;;
32824;SDS011;51060;42.640;24.356;2022-12-07T11:12:16;10.27;;;7.37;;
32824;SDS011;51060;42.640;24.356;2022-12-07T11:17:18;12.33;;;8.13;;
32824;SDS011;51060;42.640;24.356;2022-12-07T11:19:54;9.37;;;7.50;;
32824;SDS011;51060;42.640;24.356;2022-12-07T11:22:52;10.48;;;6.70;;
32824;SDS011;51060;42.640;24.356;2022-12-07T11:25:29;10.07;;;6.87;;
32824;SDS011;51060;42.640;24.356;2022-12-07T11:33:27;15.23;;;9.40;;
32824;SDS011;51060;42.640;24.356;2022-12-07T11:39:00;14.77;;;10.65;;
32824;SDS011;51060;42.640;24.356;2022-12-07T11:41:34;13.77;;;10.30;;
32824;SDS011;51060;42.640;24.356;2022-12-07T11:44:11;11.93;;;9.63;;
32824;SDS011;51060;42.640;24.356;2022-12-07T11:46:50;17.95;;;12.35;;
32824;SDS011;51060;42.640;24.356;2022-12-07T11:49:27;15.13;;;11.10;;
32824;SDS011;51060;42.640;24.356;2022-12-07T11:52:02;11.07;;;8.03;;
32824;SDS011;51060;42.640;24.356;2022-12-07T11:54:29;12.23;;;9.50;;
32824;SDS011;51060;42.640;24.356;2022-12-07T11:56:59;11.13;;;8.83;;
32824;SDS011;51060;42.640;24.356;2022-12-07T11:59:49;14.30;;;9.68;;
32824;SDS011;51060;42.640;24.356;2022-12-07T12:02:16;8.13;;;6.00;;
32824;SDS011;51060;42.640;24.356;2022-12-07T12:04:52;10.13;;;6.30;;
32824;SDS011;51060;42.640;24.356;2022-12-07T12:07:24;10.20;;;7.97;;
32824;SDS011;51060;42.640;24.356;2022-12-07T12:10:02;12.20;;;8.45;;
32824;SDS011;51060;42.640;24.356;2022-12-07T12:21:16;11.40;;;7.00;;
32824;SDS011;51060;42.640;24.356;2022-12-07T12:23:44;8.68;;;6.57;;
32824;SDS011;51060;42.640;24.356;2022-12-07T12:26:16;13.10;;;8.35;;
32824;SDS011;51060;42.640;24.356;2022-12-07T12:31:40;11.83;;;7.80;;
32824;SDS011;51060;42.640;24.356;2022-12-07T12:36:55;8.80;;;6.88;;
32824;SDS011;51060;42.640;24.356;2022-12-07T12:39:22;9.52;;;7.78;;
32824;SDS011;51060;42.640;24.356;2022-12-07T12:57:35;13.35;;;9.10;;
32824;SDS011;51060;42.640;24.356;2022-12-07T13:00:14;9.23;;;7.63;;
32824;SDS011;51060;42.640;24.356;2022-12-07T13:02:51;13.53;;;9.73;;
32824;SDS011;51060;42.640;24.356;2022-12-07T13:05:22;12.68;;;8.70;;
32824;SDS011;51060;42.640;24.356;2022-12-07T13:15:40;13.47;;;7.90;;
32824;SDS011;51060;42.640;24.356;2022-12-07T13:23:32;16.90;;;11.13;;
32824;SDS011;51060;42.640;24.356;2022-12-07T13:29:15;20.80;;;13.60;;
32824;SDS011;51060;42.640;24.356;2022-12-07T13:31:42;17.03;;;11.37;;
32824;SDS011;51060;42.640;24.356;2022-12-07T13:37:10;25.57;;;18.73;;
32824;SDS011;51060;42.640;24.356;2022-12-07T13:39:53;27.90;;;17.90;;
32824;SDS011;51060;42.640;24.356;2022-12-07T13:42:31;21.70;;;13.60;;
32824;SDS011;51060;42.640;24.356;2022-12-07T13:44:58;26.57;;;19.53;;
32824;SDS011;51060;42.640;24.356;2022-12-07T13:47:43;40.03;;;29.97;;
32824;SDS011;51060;42.640;24.356;2022-12-07T13:50:32;35.43;;;25.37;;
32824;SDS011;51060;42.640;24.356;2022-12-07T13:52:58;43.23;;;30.60;;
32824;SDS011;51060;42.640;24.356;2022-12-07T13:55:28;45.77;;;35.17;;
32824;SDS011;51060;42.640;24.356;2022-12-07T13:57:55;33.93;;;25.83;;
32824;SDS011;51060;42.640;24.356;2022-12-07T14:00:21;38.93;;;25.27;;
32824;SDS011;51060;42.640;24.356;2022-12-07T14:03:02;14.57;;;10.40;;
32824;SDS011;51060;42.640;24.356;2022-12-07T14:05:33;19.57;;;11.83;;
32824;SDS011;51060;42.640;24.356;2022-12-07T14:08:21;13.70;;;9.07;;
32824;SDS011;51060;42.640;24.356;2022-12-07T14:13:37;20.80;;;13.90;;
32824;SDS011;51060;42.640;24.356;2022-12-07T14:18:43;21.63;;;19.33;;
32824;SDS011;51060;42.640;24.356;2022-12-07T14:23:34;14.37;;;11.47;;
32824;SDS011;51060;42.640;24.356;2022-12-07T14:26:19;21.57;;;16.77;;
32824;SDS011;51060;42.640;24.356;2022-12-07T14:28:45;15.10;;;11.30;;
32824;SDS011;51060;42.640;24.356;2022-12-07T14:31:13;16.90;;;12.60;;
32824;SDS011;51060;42.640;24.356;2022-12-07T14:33:45;16.97;;;10.67;;
32824;SDS011;51060;42.640;24.356;2022-12-07T14:36:10;19.83;;;13.80;;
32824;SDS011;51060;42.640;24.356;2022-12-07T14:38:37;36.07;;;23.50;;
32824;SDS011;51060;42.640;24.356;2022-12-07T14:41:03;34.67;;;24.10;;
32824;SDS011;51060;42.640;24.356;2022-12-07T14:43:48;30.13;;;20.57;;
32824;SDS011;51060;42.640;24.356;2022-12-07T14:46:14;35.43;;;30.83;;
32824;SDS011;51060;42.640;24.356;2022-12-07T14:48:39;45.07;;;36.27;;
32824;SDS011;51060;42.640;24.356;2022-12-07T14:51:05;41.20;;;36.83;;
32824;SDS011;51060;42.640;24.356;2022-12-07T14:53:33;31.27;;;28.00;;
32824;SDS011;51060;42.640;24.356;2022-12-07T14:56:01;37.50;;;25.57;;
32824;SDS011;51060;42.640;24.356;2022-12-07T14:58:30;22.17;;;16.23;;
32824;SDS011;51060;42.640;24.356;2022-12-07T15:00:56;30.87;;;27.30;;
32824;SDS011;51060;42.640;24.356;2022-12-07T15:03:21;14.07;;;10.00;;
32824;SDS011;51060;42.640;24.356;2022-12-07T15:05:47;13.10;;;8.80;;
32824;SDS011;51060;42.640;24.356;2022-12-07T15:08:12;12.43;;;8.50;;
32824;SDS011;51060;42.640;24.356;2022-12-07T15:10:38;14.27;;;8.17;;
32824;SDS011;51060;42.640;24.356;2022-12-07T15:13:05;23.60;;;16.57;;
32824;SDS011;51060;42.640;24.356;2022-12-07T15:15:50;161.87;;;109.33;;
32824;SDS011;51060;42.640;24.356;2022-12-07T15:18:17;88.27;;;61.07;;
32824;SDS011;51060;42.640;24.356;2022-12-07T15:20:43;83.67;;;58.87;;
32824;SDS011;51060;42.640;24.356;2022-12-07T15:23:10;58.90;;;43.73;;
32824;SDS011;51060;42.640;24.356;2022-12-07T15:25:36;22.23;;;17.43;;
32824;SDS011;51060;42.640;24.356;2022-12-07T15:28:01;16.20;;;12.57;;
32824;SDS011;51060;42.640;24.356;2022-12-07T15:30:27;14.73;;;10.43;;
32824;SDS011;51060;42.640;24.356;2022-12-07T15:32:53;15.77;;;9.90;;
32824;SDS011;51060;42.640;24.356;2022-12-07T15:35:19;30.67;;;21.97;;
32824;SDS011;51060;42.640;24.356;2022-12-07T15:37:45;28.63;;;20.77;;
32824;SDS011;51060;42.640;24.356;2022-12-07T15:40:11;39.90;;;28.43;;
32824;SDS011;51060;42.640;24.356;2022-12-07T15:42:40;53.67;;;35.73;;
32824;SDS011;51060;42.640;24.356;2022-12-07T15:45:06;60.20;;;39.57;;
32824;SDS011;51060;42.640;24.356;2022-12-07T15:47:33;59.77;;;39.20;;
32824;SDS011;51060;42.640;24.356;2022-12-07T15:50:04;55.60;;;37.43;;
32824;SDS011;51060;42.640;24.356;2022-12-07T15:52:31;54.80;;;36.97;;
32824;SDS011;51060;42.640;24.356;2022-12-07T15:54:57;45.43;;;31.23;;
32824;SDS011;51060;42.640;24.356;2022-12-07T15:57:25;34.77;;;25.10;;
32824;SDS011;51060;42.640;24.356;2022-12-07T15:59:51;36.80;;;26.47;;
32824;SDS011;51060;42.640;24.356;2022-12-07T16:02:17;68.20;;;52.10;;
32824;SDS011;51060;42.640;24.356;2022-12-07T16:04:42;27.47;;;20.83;;
32824;SDS011;51060;42.640;24.356;2022-12-07T16:07:08;24.50;;;16.77;;
32824;SDS011;51060;42.640;24.356;2022-12-07T16:09:36;21.43;;;14.40;;
32824;SDS011;51060;42.640;24.356;2022-12-07T16:12:02;55.57;;;34.83;;
32824;SDS011;51060;42.640;24.356;2022-12-07T16:14:28;64.90;;;44.57;;
32824;SDS011;51060;42.640;24.356;2022-12-07T16:16:53;82.37;;;55.33;;
32824;SDS011;51060;42.640;24.356;2022-12-07T16:19:19;86.73;;;57.37;;
32824;SDS011;51060;42.640;24.356;2022-12-07T16:21:45;89.53;;;61.47;;
32824;SDS011;51060;42.640;24.356;2022-12-07T16:24:10;47.27;;;34.03;;
32824;SDS011;51060;42.640;24.356;2022-12-07T16:26:38;33.97;;;24.67;;
32824;SDS011;51060;42.640;24.356;2022-12-07T16:29:04;29.40;;;22.00;;
32824;SDS011;51060;42.640;24.356;2022-12-07T16:31:29;28.73;;;22.13;;
32824;SDS011;51060;42.640;24.356;2022-12-07T16:33:56;20.80;;;15.80;;
32824;SDS011;51060;42.640;24.356;2022-12-07T16:36:23;30.83;;;21.70;;
32824;SDS011;51060;42.640;24.356;2022-12-07T16:38:50;30.17;;;19.47;;